Campbell, MO (63933)

7:31 AM CDT on September 20, 2014 (GMT -0500)
Peach Orchard | Change Station
CLOSE
Current Station
Personal Weather Station
Location: Gideon, MO
Elevation: 263 ft
Nearby Weather Stations

Elev 263 ft 36.37 °N, 89.94 °W | Updated 1 minute ago

Partly Cloudy
Partly Cloudy
62.4 °F
Feels Like 62.4 °F
N
0.0
Wind Variable Wind from South
Gusts 0.0 mph

Today
High -- | Low -- °F
--% Chance of Precip.
Yesterday
High -- | Low -- °F
Precip. -- in
6:46 AM 7:00 PM
Waning Crescent, 12% visible
Pressure 30.04 in
Visibility 4.0 miles
Clouds Clear
Dew Point 61 °F
Humidity 95%
Rainfall 0.00 in
Snow Depth Not available.
UV 0 out of 12
Pollen 7.60 out of 12
Air Quality Not available.
Flu Activity Not available.
METAR KPOF 201153Z AUTO 00000KT 4SM BR CLR 14/13 A3005 RMK AO2 SLP172 T01440128 10161 20144 51015

More Conditions Fewer Conditions

Pressure 30.04 in
Visibility 4.0 miles
Clouds Clear
Dew Point 61 °F
Humidity 95%
Rainfall 0.00 in
Snow Depth Not available.
UV 0 out of 12
Pollen 7.60 out of 12
Air Quality Not available.
Flu Activity Not available.
METAR KPOF 201153Z AUTO 00000KT 4SM BR CLR 14/13 A3005 RMK AO2 SLP172 T01440128 10161 20144 51015

More Conditions Fewer Conditions

10-Day Weather Forecast

Almanac

Astronomy

Sep. 20, 2014 Rise Set
Actual Time 6:46 AM CDT 7:00 PM CDT
Civil Twilight 6:20 AM CDT 7:25 PM CDT
Nautical Twilight 5:50 AM CDT 7:55 PM CDT
Astronomical Twilight 5:20 AM CDT 8:26 PM CDT
Moon 3:30 AM CDT 4:59 PM CDT
Length of Visible Light 13h 05m
Length of Day
12h 13m
Tomorrow will be 2m 19s shorter.
Waning Crescent, 12% of the Moon is Illuminated
Today
Waning Crescent
Sep 24
New
Oct 1
First Quarter
Oct 8
Full
Oct 15
Last Quarter

Today's Extremes

State Highs State Lows

Community

WunderPhotos

Upload Photos

1,754,840 photos uploaded!

Nearby

Snow Depth

Station Depth Elevation
No new snow has been reported.

Earthquake Activity

City Distance Mag. Time & Date
No recent earthquake activity has been reported nearby.
Minimum magnitude displayed is 2.5.

Coastal Water Temperatures

Place Temperature
No Stations Reporting

Nearby Weather Stations